Nearby METAR Reports

 

KCPC - Whiteville, North Carolina, USA
Distance from station: NNE 17mi, 28km
Updated: 12/10/2018 2:20am
Overcast
Overcast
 Wind from N
Wind: N 5 mph , 7 km/h
Temperature: 39°F , 4°C
Wind Chill: 35°F , 2°C
Dew Point: 37°F , 3°C
Humidity: 93%
Barometer: 29.88 inHg , 1011.9 hPa
Clouds: Overcast
Visibility: 7 miles , 11 km
Cloud details: Overcast 600 ft
2018/12/10 07:20 KCPC 100720Z AUTO 35004KT 7SM OVC006 04/03 A2988 RMK AO2 T00400032
KCRE - North Myrtle Bea, South Carolina, USA
Distance from station: SSE 19mi, 31km
Updated: 12/10/2018 1:53am
Mist, Overcast
Mist, Overcast
 Wind from N
Wind: N 7 mph , 11 km/h
Temperature: 39°F , 4°C
Wind Chill: 34°F , 1°C
Dew Point: 39°F , 4°C
Humidity: 100%
Barometer: 29.87 inHg , 1011.5 hPa
Summary: Mist
Clouds: Overcast
Visibility: 6 miles , 10 km
Cloud details: Overcast 700 ft
2018/12/10 06:53 KCRE 100653Z AUTO 01006KT 6SM BR OVC007 04/04 A2987 RMK AO1 SLP115 T00440039
 
KHYW - Conway-Horry Cty, South Carolina, USA
Distance from station: SW 22mi, 35km
Updated: 12/10/2018 2:15am
Mist, Overcast
Mist, Overcast
 Wind from N
Wind: N 3 mph , 6 km/h
Temperature: 37°F , 3°C
Dew Point: 37°F , 3°C
Humidity: 100%
Barometer: 29.90 inHg , 1012.5 hPa
Summary: Mist
Clouds: Overcast
Visibility: 4 miles , 6 km
Cloud details: Overcast 500 ft
2018/12/10 07:15 KHYW 100715Z AUTO 35003KT 4SM BR OVC005 03/03 A2990 RMK AO2
KMAO - Marion, South Carolina, USA
Distance from station: WNW 28mi, 45km
Updated: 12/10/2018 2:35am
Drizzle, Overcast
Drizzle, Overcast
 Wind from N
Wind: N 8 mph , 13 km/h
Temperature: 36°F , 2°C
Wind Chill: 30°F , -1°C
Dew Point: 36°F , 2°C
Humidity: 100%
Barometer: 29.91 inHg , 1012.9 hPa
Summary: Drizzle
Clouds: Overcast
Visibility: 4 miles , 6 km
Cloud details: Overcast 500 ft
2018/12/10 07:35 KMAO 100735Z AUTO 01007KT 4SM DZ OVC005 02/02 A2991 RMK AO2
 
KMYR - Myrtle Beach, South Carolina, USA
Distance from station: S 28mi, 45km
Updated: 12/10/2018 2:26am
Light rain, Mist, Overcast
Light rain, Mist, Overcast
 Wind from NNW
Wind: NNW 8 mph , 13 km/h
Temperature: 39°F , 4°C
Wind Chill: 33°F , 1°C
Dew Point: 39°F , 4°C
Humidity: 100%
Barometer: 29.90 inHg , 1012.5 hPa
Summary: Light rain, Mist
Clouds: Overcast
Visibility: 2 1/2 miles , 4 km
Cloud details: Overcast 500 ft
2018/12/10 07:26 KMYR 100726Z AUTO 34007KT 2 1/2SM -RA BR OVC005 04/04 A2990 RMK AO2 CIG 004V009 P0000
KLBT - Lumberton, North Carolina, USA
Distance from station: NNW 39mi, 62km
Updated: 12/10/2018 2:08am
Overcast
Overcast
 Wind from NNE
Wind: NNE 12 mph , 19 km/h
Temperature: 37°F , 3°C
Wind Chill: 29°F , -2°C
Dew Point: 36°F , 2°C
Humidity: 93%
Barometer: 29.91 inHg , 1012.9 hPa
Clouds: Overcast
Visibility: 7 miles , 11 km
Cloud details: Overcast 700 ft
2018/12/10 07:08 KLBT 100708Z AUTO 02010KT 7SM OVC007 03/02 A2991 RMK AO2 CIG 006V010 T00330022 $
 
KSUT - Southport, North Carolina, USA
Distance from station: E 46mi, 74km
Updated: 12/10/2018 2:20am
Overcast
Overcast
 Wind from N
Wind: N 7 mph , 11 km/h
Temperature: 41°F , 5°C
Wind Chill: 36°F , 2°C
Dew Point: 39°F , 4°C
Humidity: 93%
Barometer: 29.85 inHg , 1010.8 hPa
Clouds: Overcast
Visibility: 10 miles , 16 km
Cloud details: Overcast 900 ft
2018/12/10 07:20 KSUT 100720Z AUTO 35006KT 10SM OVC009 05/04 A2985 RMK AO2 T00500040
KFLO - Florence, South Carolina, USA
Distance from station: W 50mi, 81km
Updated: 12/10/2018 2:27am
Mist, Overcast
Mist, Overcast
 Wind from NNE
Wind: NNE 7 mph , 11 km/h
Temperature: 37°F , 3°C
Wind Chill: 32°F , 0°C
Dew Point: 36°F , 2°C
Humidity: 93%
Barometer: 29.92 inHg , 1013.2 hPa
Summary: Mist
Clouds: Overcast
Visibility: 2 1/2 miles , 4 km
Cloud details: Mostly cloudy 700 ft
Overcast 1000 ft
2018/12/10 07:27 KFLO 100727Z 02006KT 2 1/2SM BR BKN007 OVC010 03/02 A2992 RMK AO2 CIG 005V008 T00330022